Time;durP1;ratioP1;P1;durP2;ratioP2;P2;SDS_P1;SDS_P2;PMS_P1;PMS_P2;Temp;Humidity;BMP_temperature;BMP_pressure;BME280_temperature;BME280_humidity;BME280_pressure;Samples;Min_cycle;Max_cycle;Signal;HPM_P1;HPM_P2
2021/11/06 00:00:28;;;;;;;;;;;5.00;99.90;;;;;;5033579;28;19993;-81
2021/11/06 00:02:54;;;;;;;;;;;5.10;99.60;;;;;;5033516;28;19909;-79
2021/11/06 00:05:19;;;;;;;;;;;5.30;98.60;;;;;;5032282;28;20016;-80
2021/11/06 00:07:45;;;;;;;;;;;5.40;97.80;;;;;;5033547;28;20435;-79
2021/11/06 00:10:12;;;;;;;;;;;5.20;98.10;;;;;;5033782;28;19940;-80
2021/11/06 00:12:38;;;;;;;;;;;4.80;99.50;;;;;;5035850;28;19909;-79
2021/11/06 00:15:04;;;;;;;;;;;4.60;99.90;;;;;;5036217;28;19912;-80
2021/11/06 00:17:30;;;;;;;;;;;4.50;99.90;;;;;;5037408;28;19909;-81
2021/11/06 00:19:55;;;;;;;;;;;4.60;99.90;;;;;;5036161;28;19970;-81
2021/11/06 00:22:21;;;;;;;;;;;4.70;99.90;;;;;;5037491;28;20331;-80
2021/11/06 00:24:47;;;;;;;;;;;4.90;99.90;;;;;;5037486;28;20388;-80
2021/11/06 00:27:13;;;;;;;;;;;4.80;99.90;;;;;;5037266;28;19943;-80
2021/11/06 00:29:38;;;;;;;;;;;4.90;99.90;;;;;;5037236;28;19909;-80
2021/11/06 00:32:04;;;;;;;;;;;4.70;99.90;;;;;;5035918;28;19970;-80
2021/11/06 00:34:30;;;;;;;;;;;4.80;99.90;;;;;;5037183;28;20269;-80
2021/11/06 00:36:56;;;;;;;;;;;5.00;99.00;;;;;;5037294;28;19911;-80
2021/11/06 00:39:21;;;;;;;;;;;5.20;98.50;;;;;;5036968;28;19928;-81
2021/11/06 00:41:47;;;;;;;;;;;5.10;98.50;;;;;;5037220;28;20289;-80
2021/11/06 00:44:12;;;;;;;;;;;5.00;98.90;;;;;;5037276;28;20356;-79
2021/11/06 00:46:38;;;;;;;;;;;4.70;99.30;;;;;;5036938;28;19905;-81
2021/11/06 00:49:04;;;;;;;;;;;4.50;99.90;;;;;;5036835;28;20329;-81
2021/11/06 00:51:29;;;;;;;;;;;4.40;99.90;;;;;;5036884;28;20365;-80
2021/11/06 00:53:55;;;;;;;;;;;4.40;99.90;;;;;;5036756;28;19905;-81
2021/11/06 00:56:20;;;;;;;;;;;4.40;99.90;;;;;;5036737;28;19927;-80
2021/11/06 00:58:46;;;;;;;;;;;4.30;99.90;;;;;;5036868;28;19949;-80
2021/11/06 01:01:12;;;;;;;;;;;4.60;99.90;;;;;;5052036;28;19928;-81
2021/11/06 01:03:37;;;;;;;;;;;4.70;99.90;;;;;;5036738;28;19909;-80
2021/11/06 01:06:03;;;;;;;;;;;4.80;99.90;;;;;;5036563;28;20403;-80
2021/11/06 01:08:29;;;;;;;;;;;4.70;99.90;;;;;;5036698;28;20280;-80
2021/11/06 01:10:54;;;;;;;;;;;4.60;99.90;;;;;;5035032;28;19920;-80
2021/11/06 01:13:20;;;;;;;;;;;4.70;99.90;;;;;;5051801;28;19911;-79
2021/11/06 01:15:46;;;;;;;;;;;4.90;99.90;;;;;;5035172;28;19943;-80
2021/11/06 01:18:11;;;;;;;;;;;4.90;99.90;;;;;;5036351;28;19998;-80
2021/11/06 01:20:37;;;;;;;;;;;5.00;99.90;;;;;;5035117;28;19955;-80
2021/11/06 01:23:03;;;;;;;;;;;5.00;99.90;;;;;;5034753;28;19909;-80
2021/11/06 01:25:29;;;;;;;;;;;5.20;99.90;;;;;;5036316;28;20369;-80
2021/11/06 01:27:54;;;;;;;;;;;5.30;99.70;;;;;;5036140;28;19912;-80
2021/11/06 01:30:20;;;;;;;;;;;5.00;99.80;;;;;;5034783;28;19905;-81
2021/11/06 01:32:46;;;;;;;;;;;4.60;99.90;;;;;;5036365;28;19905;-80
2021/11/06 01:35:12;;;;;;;;;;;4.50;99.90;;;;;;5036036;28;19905;-80
2021/11/06 01:37:38;;;;;;;;;;;4.80;99.90;;;;;;5036104;28;20362;-80
2021/11/06 01:40:05;;;;;;;;;;;4.90;99.10;;;;;;5034626;28;19912;-80
2021/11/06 01:42:31;;;;;;;;;;;4.90;98.70;;;;;;5035727;28;19909;-81
2021/11/06 01:44:57;;;;;;;;;;;4.80;98.70;;;;;;5036073;28;19912;-80
2021/11/06 01:47:23;;;;;;;;;;;4.50;99.90;;;;;;5036184;28;19905;-79
2021/11/06 01:49:48;;;;;;;;;;;4.30;99.90;;;;;;5035923;28;19905;-80
2021/11/06 01:52:14;;;;;;;;;;;4.30;99.90;;;;;;5035738;28;20251;-80
2021/11/06 01:54:40;;;;;;;;;;;4.60;99.90;;;;;;5035713;28;19915;-78
2021/11/06 01:57:05;;;;;;;;;;;4.60;99.90;;;;;;5035813;28;19905;-80
2021/11/06 01:59:31;;;;;;;;;;;4.70;99.90;;;;;;5035929;28;19904;-80
2021/11/06 02:01:58;;;;;;;;;;;4.50;99.90;;;;;;5034258;28;19912;-80
2021/11/06 02:04:24;;;;;;;;;;;4.40;99.90;;;;;;5034236;28;20407;-80
2021/11/06 02:06:50;;;;;;;;;;;4.40;99.90;;;;;;5035746;28;19936;-80
2021/11/06 02:09:16;;;;;;;;;;;4.40;99.90;;;;;;5035636;28;19905;-80
2021/11/06 02:11:42;;;;;;;;;;;4.50;99.90;;;;;;5035289;28;19923;-80
2021/11/06 02:14:07;;;;;;;;;;;4.70;99.90;;;;;;5034082;28;19904;-80
2021/11/06 02:16:33;;;;;;;;;;;4.60;99.90;;;;;;5035361;28;20394;-81
2021/11/06 02:19:00;;;;;;;;;;;4.70;99.90;;;;;;5035210;28;19909;-79
2021/11/06 02:21:25;;;;;;;;;;;4.70;99.90;;;;;;5035102;28;20464;-81
2021/11/06 02:23:51;;;;;;;;;;;4.50;99.90;;;;;;5050326;28;19912;-81
2021/11/06 02:26:18;;;;;;;;;;;4.40;99.90;;;;;;5035109;28;19905;-79
2021/11/06 02:28:45;;;;;;;;;;;4.50;99.90;;;;;;5035010;28;19907;-80
2021/11/06 02:31:11;;;;;;;;;;;4.60;99.90;;;;;;5033734;28;20387;-82
2021/11/06 02:33:36;;;;;;;;;;;4.70;99.60;;;;;;5034273;28;19936;-81
2021/11/06 02:36:02;;;;;;;;;;;4.70;99.50;;;;;;5035035;28;19932;-80
2021/11/06 02:38:28;;;;;;;;;;;4.50;99.90;;;;;;5034961;28;19905;-81
2021/11/06 02:40:54;;;;;;;;;;;4.10;99.90;;;;;;5034754;28;20347;-80
2021/11/06 02:43:20;;;;;;;;;;;3.90;99.90;;;;;;5033432;28;19909;-81
2021/11/06 02:45:45;;;;;;;;;;;3.90;99.90;;;;;;5034750;28;19905;-80
2021/11/06 02:48:11;;;;;;;;;;;3.70;99.90;;;;;;5033492;28;20335;-80
2021/11/06 02:50:37;;;;;;;;;;;3.60;99.90;;;;;;5034734;28;19941;-81
2021/11/06 02:53:02;;;;;;;;;;;3.60;99.90;;;;;;5033350;28;20269;-81
2021/11/06 02:55:28;;;;;;;;;;;3.60;99.90;;;;;;5034525;28;20392;-80
2021/11/06 02:57:54;;;;;;;;;;;3.60;99.90;;;;;;5034520;28;19912;-82
2021/11/06 03:00:21;;;;;;;;;;;3.60;99.90;;;;;;5034613;28;20386;-81
2021/11/06 03:02:46;;;;;;;;;;;3.60;99.90;;;;;;5034318;28;19915;-80
2021/11/06 03:05:13;;;;;;;;;;;3.70;99.90;;;;;;5034347;28;20003;-80
2021/11/06 03:07:39;;;;;;;;;;;4.00;99.90;;;;;;5034332;28;19909;-80
2021/11/06 03:10:07;;;;;;;;;;;4.10;99.90;;;;;;5034172;28;20427;-80
2021/11/06 03:12:33;;;;;;;;;;;4.30;99.90;;;;;;5032687;28;19960;-80
2021/11/06 03:14:59;;;;;;;;;;;4.30;99.90;;;;;;5034227;28;19932;-82
2021/11/06 03:17:25;;;;;;;;;;;4.00;99.90;;;;;;5034371;28;19905;-80
2021/11/06 03:19:50;;;;;;;;;;;3.80;99.90;;;;;;5034098;28;20369;-81
2021/11/06 03:22:16;;;;;;;;;;;4.00;99.90;;;;;;5049302;28;19919;-80
2021/11/06 03:24:42;;;;;;;;;;;3.90;99.90;;;;;;5034237;28;20285;-80
2021/11/06 03:27:07;;;;;;;;;;;3.80;99.90;;;;;;5032732;28;20320;-80
2021/11/06 03:29:33;;;;;;;;;;;3.70;99.90;;;;;;5033980;28;19905;-82
2021/11/06 03:32:00;;;;;;;;;;;3.90;99.90;;;;;;5034112;28;20427;-81
2021/11/06 03:34:25;;;;;;;;;;;4.00;99.90;;;;;;5034035;28;19905;-82
2021/11/06 03:36:51;;;;;;;;;;;4.00;99.90;;;;;;5033904;28;19905;-80
2021/11/06 03:39:17;;;;;;;;;;;3.80;99.90;;;;;;5033744;28;19905;-80
2021/11/06 03:41:43;;;;;;;;;;;3.90;99.90;;;;;;5034185;28;19920;-81
2021/11/06 03:44:08;;;;;;;;;;;4.00;99.90;;;;;;5033708;28;20384;-82
2021/11/06 03:46:34;;;;;;;;;;;3.90;99.90;;;;;;5033769;28;19905;-80
2021/11/06 03:49:00;;;;;;;;;;;3.90;99.90;;;;;;5033722;28;19905;-81
2021/11/06 03:51:26;;;;;;;;;;;4.00;99.90;;;;;;5033729;28;19912;-81
2021/11/06 03:53:51;;;;;;;;;;;3.70;99.90;;;;;;5033674;28;19948;-80
2021/11/06 03:56:17;;;;;;;;;;;3.40;99.90;;;;;;5033845;28;19944;-80
2021/11/06 03:58:43;;;;;;;;;;;3.50;99.90;;;;;;5032331;28;19959;-80
2021/11/06 04:01:09;;;;;;;;;;;3.50;99.90;;;;;;5032280;28;19909;-81
2021/11/06 04:03:35;;;;;;;;;;;3.30;99.90;;;;;;5033526;28;19960;-80
2021/11/06 04:06:01;;;;;;;;;;;3.10;99.90;;;;;;5033642;28;19908;-81
2021/11/06 04:08:27;;;;;;;;;;;3.00;99.90;;;;;;5032302;28;19909;-80
2021/11/06 04:10:52;;;;;;;;;;;2.90;99.90;;;;;;5032037;28;20400;-80
2021/11/06 04:13:18;;;;;;;;;;;2.90;99.90;;;;;;5033941;28;19905;-82
2021/11/06 04:15:44;;;;;;;;;;;3.00;99.90;;;;;;5033430;28;19995;-80
2021/11/06 04:18:09;;;;;;;;;;;2.90;99.90;;;;;;5032248;28;20246;-80
2021/11/06 04:20:35;;;;;;;;;;;2.80;99.90;;;;;;5033414;28;20377;-80
2021/11/06 04:23:01;;;;;;;;;;;2.80;99.90;;;;;;5033280;28;20004;-80
2021/11/06 04:25:26;;;;;;;;;;;2.90;99.90;;;;;;5033335;28;19905;-80
2021/11/06 04:27:52;;;;;;;;;;;3.10;99.90;;;;;;5033631;28;19909;-81
2021/11/06 04:30:18;;;;;;;;;;;3.10;99.90;;;;;;5032120;28;19905;-80
2021/11/06 04:32:43;;;;;;;;;;;3.10;99.90;;;;;;5033337;28;20250;-79
2021/11/06 04:35:09;;;;;;;;;;;3.10;99.90;;;;;;5048620;28;20389;-80
2021/11/06 04:37:36;;;;;;;;;;;3.10;99.90;;;;;;5032021;28;19941;-81
2021/11/06 04:40:01;;;;;;;;;;;3.10;99.90;;;;;;5031918;28;19991;-81
2021/11/06 04:42:27;;;;;;;;;;;3.10;99.90;;;;;;5033206;28;20449;-81
2021/11/06 04:44:53;;;;;;;;;;;3.00;99.90;;;;;;5033466;28;20423;-82
2021/11/06 04:47:18;;;;;;;;;;;3.10;99.90;;;;;;5031951;28;19905;-81
2021/11/06 04:49:44;;;;;;;;;;;3.20;99.90;;;;;;5033172;28;19912;-80
2021/11/06 04:52:09;;;;;;;;;;;3.40;99.90;;;;;;5033134;28;20361;-80
2021/11/06 04:54:35;;;;;;;;;;;3.50;99.90;;;;;;5033152;28;19913;-82
2021/11/06 04:57:01;;;;;;;;;;;3.70;99.90;;;;;;5049532;28;19995;-81
2021/11/06 04:59:27;;;;;;;;;;;3.80;99.90;;;;;;5036990;28;20369;-80
2021/11/06 05:01:52;;;;;;;;;;;3.80;99.90;;;;;;5036714;28;19933;-80
2021/11/06 05:04:18;;;;;;;;;;;3.60;99.90;;;;;;5036693;28;19916;-80
2021/11/06 05:06:43;;;;;;;;;;;3.50;99.90;;;;;;5036625;28;20007;-82
2021/11/06 05:09:09;;;;;;;;;;;3.70;99.90;;;;;;5036596;28;20003;-81
2021/11/06 05:11:35;;;;;;;;;;;3.60;99.90;;;;;;5051705;28;19916;-81
2021/11/06 05:14:00;;;;;;;;;;;3.30;99.90;;;;;;5051803;28;19988;-79
2021/11/06 05:16:27;;;;;;;;;;;3.20;99.90;;;;;;5036319;28;19921;-80
2021/11/06 05:18:56;;;;;;;;;;;3.20;99.90;;;;;;5036374;28;19967;-80
2021/11/06 05:21:21;;;;;;;;;;;3.20;99.90;;;;;;5036456;28;19904;-80
2021/11/06 05:23:48;;;;;;;;;;;3.40;99.90;;;;;;5036395;28;19909;-80
2021/11/06 05:26:14;;;;;;;;;;;3.50;99.90;;;;;;5036190;28;20362;-80
2021/11/06 05:28:41;;;;;;;;;;;3.60;99.90;;;;;;5036206;28;19954;-80
2021/11/06 05:31:07;;;;;;;;;;;3.50;99.90;;;;;;5036165;28;20374;-79
2021/11/06 05:33:33;;;;;;;;;;;3.30;99.90;;;;;;5036283;28;19905;-80
2021/11/06 05:35:58;;;;;;;;;;;3.30;99.90;;;;;;5036132;28;20389;-80
2021/11/06 05:38:24;;;;;;;;;;;3.30;99.90;;;;;;5035980;28;19913;-79
2021/11/06 05:40:50;;;;;;;;;;;3.40;99.90;;;;;;5035955;28;19994;-79
2021/11/06 05:43:15;;;;;;;;;;;3.40;99.90;;;;;;5051188;28;19908;-80
2021/11/06 05:45:41;;;;;;;;;;;3.40;99.90;;;;;;5036085;28;19909;-80
2021/11/06 05:48:06;;;;;;;;;;;3.40;99.90;;;;;;5035846;28;19996;-80
2021/11/06 05:50:32;;;;;;;;;;;3.50;99.90;;;;;;5034563;28;19905;-82
2021/11/06 05:52:58;;;;;;;;;;;3.30;99.90;;;;;;5035759;28;19944;-80
2021/11/06 05:55:23;;;;;;;;;;;3.10;99.90;;;;;;5035723;28;19935;-80
2021/11/06 05:57:49;;;;;;;;;;;3.00;99.90;;;;;;5035956;28;19913;-80
2021/11/06 06:00:16;;;;;;;;;;;3.10;99.90;;;;;;5034330;28;19905;-82
2021/11/06 06:02:42;;;;;;;;;;;3.30;99.90;;;;;;5034250;28;19916;-80
2021/11/06 06:05:11;;;;;;;;;;;3.30;99.90;;;;;;5034268;28;20277;-81
2021/11/06 06:07:37;;;;;;;;;;;3.20;99.90;;;;;;5035337;28;19943;-80
2021/11/06 06:10:07;;;;;;;;;;;3.20;99.90;;;;;;5034704;28;19962;-81
2021/11/06 06:12:33;;;;;;;;;;;3.10;99.90;;;;;;5035531;28;19934;-79
2021/11/06 06:14:58;;;;;;;;;;;3.00;99.90;;;;;;5035353;28;19905;-80
2021/11/06 06:17:24;;;;;;;;;;;3.00;99.90;;;;;;5035273;28;20377;-81
2021/11/06 06:19:49;;;;;;;;;;;3.10;99.90;;;;;;5035472;28;19905;-81
2021/11/06 06:22:15;;;;;;;;;;;3.00;99.90;;;;;;5035171;28;19928;-79
2021/11/06 06:24:41;;;;;;;;;;;2.90;99.90;;;;;;5035185;28;19936;-81
2021/11/06 06:27:06;;;;;;;;;;;2.90;99.90;;;;;;5035673;28;19912;-80
2021/11/06 06:29:33;;;;;;;;;;;3.20;99.90;;;;;;5035112;28;20333;-80
2021/11/06 06:31:58;;;;;;;;;;;3.40;99.90;;;;;;5034972;28;19911;-79
2021/11/06 06:34:24;;;;;;;;;;;3.40;99.90;;;;;;5050303;28;19944;-80
2021/11/06 06:36:50;;;;;;;;;;;3.30;99.90;;;;;;5033673;28;20265;-81
2021/11/06 06:39:15;;;;;;;;;;;3.20;99.90;;;;;;5034970;28;20409;-82
2021/11/06 06:41:41;;;;;;;;;;;3.10;99.90;;;;;;5034804;28;19991;-80
2021/11/06 06:44:07;;;;;;;;;;;2.90;99.90;;;;;;5034715;28;20369;-80
2021/11/06 06:46:32;;;;;;;;;;;2.70;99.90;;;;;;5035218;28;20254;-80
2021/11/06 06:48:58;;;;;;;;;;;2.80;99.90;;;;;;5034906;28;19931;-80
2021/11/06 06:51:24;;;;;;;;;;;3.00;99.90;;;;;;5049939;28;19905;-80
2021/11/06 06:53:49;;;;;;;;;;;3.10;99.90;;;;;;5050013;28;19908;-79
2021/11/06 06:56:15;;;;;;;;;;;3.10;99.90;;;;;;5034626;28;19970;-80
2021/11/06 06:58:41;;;;;;;;;;;3.20;99.90;;;;;;5034492;28;19944;-82
2021/11/06 07:01:08;;;;;;;;;;;3.50;99.90;;;;;;5034492;28;19905;-81
2021/11/06 07:03:34;;;;;;;;;;;3.70;99.90;;;;;;5034353;28;19909;-80
2021/11/06 07:05:59;;;;;;;;;;;3.80;99.90;;;;;;5034444;28;20008;-80
2021/11/06 07:08:25;;;;;;;;;;;3.70;99.90;;;;;;5033031;28;19905;-79
2021/11/06 07:10:50;;;;;;;;;;;3.80;99.90;;;;;;5034119;28;19924;-80
2021/11/06 07:13:20;;;;;;;;;;;3.90;99.90;;;;;;5034253;28;19948;-81
2021/11/06 07:15:46;;;;;;;;;;;3.90;99.90;;;;;;5049572;28;19905;-80
2021/11/06 07:18:12;;;;;;;;;;;3.90;99.90;;;;;;5032844;28;19905;-80
2021/11/06 07:20:37;;;;;;;;;;;4.10;99.90;;;;;;5033890;28;19905;-80
2021/11/06 07:23:03;;;;;;;;;;;4.60;99.90;;;;;;5034053;28;20445;-81
2021/11/06 07:25:29;;;;;;;;;;;4.80;99.90;;;;;;5034108;28;20400;-80
2021/11/06 07:27:55;;;;;;;;;;;5.50;97.90;;;;;;5032717;28;19905;-80
2021/11/06 07:30:23;;;;;;;;;;;5.20;96.90;;;;;;5033948;28;19905;-81
2021/11/06 07:32:49;;;;;;;;;;;5.40;97.20;;;;;;5034283;28;20025;-80
2021/11/06 07:35:15;;;;;;;;;;;5.70;96.90;;;;;;5034059;28;20395;-81
2021/11/06 07:37:40;;;;;;;;;;;6.90;95.60;;;;;;5032602;28;19909;-81
2021/11/06 07:40:08;;;;;;;;;;;8.10;92.20;;;;;;5033749;28;20003;-82
2021/11/06 07:42:36;;;;;;;;;;;8.90;90.80;;;;;;5033758;28;19955;-78
2021/11/06 07:45:01;;;;;;;;;;;8.90;86.90;;;;;;5034069;28;19905;-79
2021/11/06 07:47:27;;;;;;;;;;;8.10;89.10;;;;;;5032471;28;19956;-79
2021/11/06 07:49:52;;;;;;;;;;;7.90;90.40;;;;;;5032447;28;19928;-79
2021/11/06 07:52:18;;;;;;;;;;;8.30;91.10;;;;;;5033650;28;20007;-78
2021/11/06 07:54:44;;;;;;;;;;;8.60;87.70;;;;;;5033818;28;20259;-77
2021/11/06 07:57:10;;;;;;;;;;;8.40;87.40;;;;;;5048944;28;19936;-78
2021/11/06 07:59:35;;;;;;;;;;;8.10;88.50;;;;;;5033726;28;19912;-78
2021/11/06 08:02:01;;;;;;;;;;;7.80;89.30;;;;;;5032311;28;19905;-79
2021/11/06 08:04:27;;;;;;;;;;;7.60;90.80;;;;;;5033639;28;20255;-78
2021/11/06 08:06:52;;;;;;;;;;;7.60;90.50;;;;;;5033638;28;19909;-78
2021/11/06 08:09:18;;;;;;;;;;;7.50;90.60;;;;;;5033603;28;20376;-78
2021/11/06 08:11:44;;;;;;;;;;;7.60;90.90;;;;;;5033359;28;19924;-78
2021/11/06 08:14:09;;;;;;;;;;;7.40;91.30;;;;;;5032251;28;19987;-78
2021/11/06 08:16:35;;;;;;;;;;;7.10;92.40;;;;;;5033491;28;19911;-78
2021/11/06 08:19:00;;;;;;;;;;;7.00;93.00;;;;;;5033419;28;19911;-78
2021/11/06 08:21:26;;;;;;;;;;;7.10;92.50;;;;;;5033401;28;19931;-78
2021/11/06 08:23:52;;;;;;;;;;;6.90;93.30;;;;;;5033340;28;20432;-78
2021/11/06 08:26:17;;;;;;;;;;;6.90;93.80;;;;;;5032088;28;19905;-78
2021/11/06 08:28:43;;;;;;;;;;;7.50;93.00;;;;;;5033332;28;19905;-78
2021/11/06 08:31:09;;;;;;;;;;;7.50;93.20;;;;;;5033373;28;19937;-80
2021/11/06 08:33:34;;;;;;;;;;;7.70;92.70;;;;;;5036558;28;20009;-78
2021/11/06 08:36:00;;;;;;;;;;;8.00;92.80;;;;;;5037023;28;19912;-78
2021/11/06 08:38:29;;;;;;;;;;;8.00;92.60;;;;;;5037080;28;20376;-80
2021/11/06 08:40:54;;;;;;;;;;;8.20;92.40;;;;;;5037350;28;19905;-78
2021/11/06 08:43:20;;;;;;;;;;;8.50;93.20;;;;;;5036955;28;20372;-79
2021/11/06 08:45:46;;;;;;;;;;;9.30;91.30;;;;;;5037223;28;19905;-78
2021/11/06 08:48:13;;;;;;;;;;;9.30;91.20;;;;;;5036927;28;19912;-78
2021/11/06 08:50:39;;;;;;;;;;;9.00;91.60;;;;;;5036925;28;19905;-77
2021/11/06 08:53:06;;;;;;;;;;;9.20;91.40;;;;;;5036845;28;19948;-80
2021/11/06 08:55:31;;;;;;;;;;;9.40;91.60;;;;;;5052205;28;19905;-81
2021/11/06 08:57:57;;;;;;;;;;;9.80;90.70;;;;;;5037562;28;19912;-78
2021/11/06 09:00:32;;;;;;;;;;;10.30;90.30;;;;;;5036799;28;19905;-80
2021/11/06 09:02:59;;;;;;;;;;;11.00;87.80;;;;;;5051704;28;19971;-79
2021/11/06 09:05:24;;;;;;;;;;;12.00;85.00;;;;;;5036581;28;20373;-79
2021/11/06 09:07:50;;;;;;;;;;;13.20;81.20;;;;;;5037179;28;19984;-78
2021/11/06 09:10:16;;;;;;;;;;;13.30;78.90;;;;;;5030931;28;19922;-79
2021/11/06 09:12:42;;;;;;;;;;;13.00;79.00;;;;;;5016764;28;19912;-79
2021/11/06 09:15:08;;;;;;;;;;;12.70;80.00;;;;;;5017009;28;19905;-79
2021/11/06 09:17:34;;;;;;;;;;;12.70;80.90;;;;;;5016599;28;19941;-79
2021/11/06 09:20:00;;;;;;;;;;;12.90;81.50;;;;;;5031776;28;19917;-79
2021/11/06 09:22:25;;;;;;;;;;;13.20;79.50;;;;;;5032211;28;19905;-80
2021/11/06 09:24:52;;;;;;;;;;;14.00;77.90;;;;;;5016841;28;19909;-79
2021/11/06 09:27:20;;;;;;;;;;;13.70;76.80;;;;;;5016426;28;19909;-81
2021/11/06 09:29:45;;;;;;;;;;;13.70;80.10;;;;;;4996172;28;20487;-79
2021/11/06 09:32:11;;;;;;;;;;;13.60;78.60;;;;;;5034467;28;20373;-78
2021/11/06 09:34:37;;;;;;;;;;;13.60;78.30;;;;;;5034536;28;20366;-81
2021/11/06 09:37:03;;;;;;;;;;;12.50;81.30;;;;;;5051590;28;19906;-78
2021/11/06 09:39:29;;;;;;;;;;;12.30;83.30;;;;;;5034717;28;19905;-79
2021/11/06 09:41:55;;;;;;;;;;;12.50;82.70;;;;;;5036353;28;19905;-79
2021/11/06 09:44:24;;;;;;;;;;;13.00;83.30;;;;;;5035795;28;19913;-79
2021/11/06 09:46:50;;;;;;;;;;;14.10;79.50;;;;;;5035954;28;19917;-79
2021/11/06 09:49:15;;;;;;;;;;;15.30;76.50;;;;;;5035027;28;19992;-80
2021/11/06 09:51:41;;;;;;;;;;;16.20;70.30;;;;;;5036170;28;19912;-80
2021/11/06 09:54:07;;;;;;;;;;;17.90;67.70;;;;;;5036031;28;19936;-79
2021/11/06 09:56:32;;;;;;;;;;;19.50;66.20;;;;;;5036265;28;19971;-79
2021/11/06 09:59:01;;;;;;;;;;;20.40;61.30;;;;;;5035939;28;19912;-80
2021/11/06 10:01:31;;;;;;;;;;;22.40;57.50;;;;;;5035768;28;19905;-80
2021/11/06 10:03:57;;;;;;;;;;;21.30;56.60;;;;;;5034001;28;19909;-79
2021/11/06 10:06:24;;;;;;;;;;;21.20;57.60;;;;;;5036022;28;20373;-79
2021/11/06 10:08:51;;;;;;;;;;;20.90;58.20;;;;;;5051089;28;19909;-79
2021/11/06 10:11:19;;;;;;;;;;;19.50;59.70;;;;;;5050995;28;19956;-79
2021/11/06 10:13:56;;;;;;;;;;;17.90;63.90;;;;;;5035589;28;19905;-80
2021/11/06 10:16:44;;;;;;;;;;;16.80;67.50;;;;;;5035222;28;19909;-80
2021/11/06 10:19:14;;;;;;;;;;;17.20;68.00;;;;;;5034274;28;19916;-79
2021/11/06 10:21:42;;;;;;;;;;;18.30;65.40;;;;;;5035662;28;19917;-80
2021/11/06 10:24:08;;;;;;;;;;;18.70;63.80;;;;;;5035406;28;19909;-79
2021/11/06 10:26:37;;;;;;;;;;;18.40;63.00;;;;;;5035395;28;19912;-78
2021/11/06 10:29:06;;;;;;;;;;;18.00;64.40;;;;;;5035172;28;19991;-79
2021/11/06 10:31:33;;;;;;;;;;;17.90;65.00;;;;;;5034136;28;19905;-80
2021/11/06 10:34:09;;;;;;;;;;;18.00;65.40;;;;;;5035236;28;19912;-79
2021/11/06 10:36:36;;;;;;;;;;;17.20;66.60;;;;;;5015544;28;19959;-80
2021/11/06 10:39:06;;;;;;;;;;;18.10;66.10;;;;;;5015598;28;20397;-79
2021/11/06 10:41:34;;;;;;;;;;;18.20;65.10;;;;;;5015258;28;19996;-79
2021/11/06 10:44:00;;;;;;;;;;;17.80;65.50;;;;;;5015084;28;19913;-80
2021/11/06 10:46:28;;;;;;;;;;;17.40;67.40;;;;;;5035047;28;19905;-79
2021/11/06 10:48:54;;;;;;;;;;;18.40;65.70;;;;;;5035101;28;19940;-79
2021/11/06 10:51:20;;;;;;;;;;;17.60;66.00;;;;;;5034962;28;19909;-79
2021/11/06 10:53:48;;;;;;;;;;;17.50;66.50;;;;;;5035238;28;19944;-79
2021/11/06 10:56:14;;;;;;;;;;;17.10;68.50;;;;;;5033956;28;20000;-79
2021/11/06 10:58:40;;;;;;;;;;;17.50;67.60;;;;;;5034809;28;19952;-80
2021/11/06 11:01:11;;;;;;;;;;;18.00;65.40;;;;;;5034610;28;20305;-79
2021/11/06 11:03:38;;;;;;;;;;;18.10;65.90;;;;;;5034890;28;20404;-79
2021/11/06 11:06:11;;;;;;;;;;;19.50;64.10;;;;;;5034453;28;19905;-79
2021/11/06 11:08:48;;;;;;;;;;;20.90;61.40;;;;;;5033329;28;20281;-80
2021/11/06 11:11:14;;;;;;;;;;;22.30;56.20;;;;;;5033226;28;20027;-80
2021/11/06 11:13:56;;;;;;;;;;;22.40;55.80;;;;;;5033216;28;19909;-79
2021/11/06 11:16:23;;;;;;;;;;;23.00;55.90;;;;;;5033936;28;19951;-79
2021/11/06 11:18:50;;;;;;;;;;;21.40;55.10;;;;;;5034480;28;19905;-80
2021/11/06 11:21:20;;;;;;;;;;;20.90;57.30;;;;;;5034518;28;19905;-79
2021/11/06 11:23:50;;;;;;;;;;;20.60;58.70;;;;;;5032920;28;20273;-79
2021/11/06 11:26:18;;;;;;;;;;;19.00;60.80;;;;;;5029206;28;20387;-79
2021/11/06 11:28:44;;;;;;;;;;;18.10;62.20;;;;;;5014456;28;19905;-80
2021/11/06 11:31:10;;;;;;;;;;;17.60;64.60;;;;;;5014744;28;19909;-79
2021/11/06 11:33:37;;;;;;;;;;;17.00;65.70;;;;;;5014144;28;20496;-79
2021/11/06 11:36:07;;;;;;;;;;;17.30;67.40;;;;;;5012907;28;19964;-80
2021/11/06 11:38:33;;;;;;;;;;;17.50;67.20;;;;;;5014300;28;20297;-78
2021/11/06 11:41:05;;;;;;;;;;;17.40;66.90;;;;;;5014453;28;20385;-80
2021/11/06 11:43:51;;;;;;;;;;;17.70;66.30;;;;;;5014011;28;19964;-79
2021/11/06 11:46:20;;;;;;;;;;;17.40;66.20;;;;;;5013386;28;19937;-79
2021/11/06 11:48:49;;;;;;;;;;;17.30;65.60;;;;;;5014039;28;20370;-79
2021/11/06 11:51:27;;;;;;;;;;;17.10;67.60;;;;;;5013977;28;19912;-79
2021/11/06 11:53:58;;;;;;;;;;;17.40;67.40;;;;;;5014153;28;19928;-79
2021/11/06 11:56:26;;;;;;;;;;;18.30;66.40;;;;;;5011371;28;19932;-79
2021/11/06 11:58:52;;;;;;;;;;;18.20;63.20;;;;;;5012416;28;19905;-78
2021/11/06 12:01:19;;;;;;;;;;;17.00;66.90;;;;;;5013356;28;19906;-79
2021/11/06 12:03:46;;;;;;;;;;;17.50;66.60;;;;;;5013449;28;19956;-79
2021/11/06 12:06:15;;;;;;;;;;;17.10;68.80;;;;;;5013485;28;20000;-78
2021/11/06 12:08:41;;;;;;;;;;;16.60;69.40;;;;;;5017720;28;19905;-79
2021/11/06 12:11:14;;;;;;;;;;;16.80;70.20;;;;;;5017707;28;20400;-79
2021/11/06 12:13:41;;;;;;;;;;;16.50;70.30;;;;;;5017724;28;20397;-79
2021/11/06 12:16:11;;;;;;;;;;;16.50;70.40;;;;;;5017984;28;19913;-78
2021/11/06 12:18:47;;;;;;;;;;;16.50;70.50;;;;;;5016463;28;19912;-79
2021/11/06 12:21:20;;;;;;;;;;;17.10;69.90;;;;;;5017688;28;19935;-79
2021/11/06 12:23:47;;;;;;;;;;;19.30;65.90;;;;;;5018003;28;19916;-79
2021/11/06 12:26:20;;;;;;;;;;;19.60;64.70;;;;;;5016292;28;20362;-79
2021/11/06 12:28:46;;;;;;;;;;;19.50;62.10;;;;;;5016308;28;20289;-79
2021/11/06 12:31:21;;;;;;;;;;;22.20;59.50;;;;;;5016244;28;20405;-79
2021/11/06 12:33:47;;;;;;;;;;;24.30;54.00;;;;;;5017491;28;19909;-79
2021/11/06 12:36:26;;;;;;;;;;;24.40;51.70;;;;;;5017543;28;20040;-79
2021/11/06 12:38:52;;;;;;;;;;;23.80;52.90;;;;;;5017321;28;20382;-80
2021/11/06 12:41:28;;;;;;;;;;;22.80;54.00;;;;;;5016075;28;20424;-79
2021/11/06 12:43:54;;;;;;;;;;;20.80;57.80;;;;;;5017208;28;19996;-80
2021/11/06 12:46:25;;;;;;;;;;;19.60;60.50;;;;;;5017172;28;19910;-78
2021/11/06 12:48:52;;;;;;;;;;;18.40;64.20;;;;;;5017355;28;19912;-79
2021/11/06 12:51:38;;;;;;;;;;;17.60;65.10;;;;;;5015860;28;19912;-78
2021/11/06 12:54:05;;;;;;;;;;;17.40;65.70;;;;;;5015533;28;19936;-78
2021/11/06 12:56:41;;;;;;;;;;;16.60;69.10;;;;;;5017159;28;19909;-78
2021/11/06 12:59:07;;;;;;;;;;;16.80;70.10;;;;;;5016969;28;19960;-79
2021/11/06 13:01:36;;;;;;;;;;;16.70;70.80;;;;;;5015631;28;19905;-80
2021/11/06 13:04:04;;;;;;;;;;;16.30;71.80;;;;;;5016737;28;19979;-79
2021/11/06 13:06:31;;;;;;;;;;;16.60;71.60;;;;;;5015537;28;19932;-78
2021/11/06 13:09:01;;;;;;;;;;;16.40;72.00;;;;;;5016632;28;19909;-78
2021/11/06 13:11:45;;;;;;;;;;;16.20;72.30;;;;;;5015205;28;19921;-78
2021/11/06 13:14:20;;;;;;;;;;;16.60;71.70;;;;;;5016614;28;19956;-78
2021/11/06 13:17:06;;;;;;;;;;;16.80;71.10;;;;;;5015091;28;19906;-78
2021/11/06 13:19:44;;;;;;;;;;;17.30;69.70;;;;;;5016543;28;19909;-78
2021/11/06 13:22:13;;;;;;;;;;;18.10;68.00;;;;;;5016634;28;20321;-79
2021/11/06 13:24:59;;;;;;;;;;;18.70;67.20;;;;;;5015207;28;19932;-79
2021/11/06 13:27:38;;;;;;;;;;;18.90;64.70;;;;;;5016049;28;19928;-79
2021/11/06 13:30:22;;;;;;;;;;;18.80;64.40;;;;;;5016550;28;19906;-79
2021/11/06 13:32:51;;;;;;;;;;;18.90;64.80;;;;;;5016313;28;19905;-79
2021/11/06 13:35:20;;;;;;;;;;;18.10;65.00;;;;;;5016308;28;19956;-79
2021/11/06 13:37:46;;;;;;;;;;;17.40;66.60;;;;;;5016260;28;19906;-78
2021/11/06 13:40:12;;;;;;;;;;;17.30;68.30;;;;;;5016221;28;20338;-79
2021/11/06 13:42:38;;;;;;;;;;;18.20;67.20;;;;;;5016122;28;19941;-81
2021/11/06 13:45:07;;;;;;;;;;;18.70;66.30;;;;;;5016133;28;19945;-79
2021/11/06 13:47:41;;;;;;;;;;;19.30;65.00;;;;;;5014783;28;20285;-79
2021/11/06 13:50:07;;;;;;;;;;;17.90;65.30;;;;;;5016051;28;19905;-78
2021/11/06 13:52:33;;;;;;;;;;;18.60;66.00;;;;;;5016267;28;20021;-79
2021/11/06 13:54:58;;;;;;;;;;;18.90;64.20;;;;;;5016038;28;19905;-79
2021/11/06 13:57:26;;;;;;;;;;;18.30;64.00;;;;;;5014557;28;20380;-78
2021/11/06 14:00:00;;;;;;;;;;;18.20;65.80;;;;;;5016085;28;19906;-77
2021/11/06 14:02:30;;;;;;;;;;;17.60;67.70;;;;;;5016020;28;19912;-78
2021/11/06 14:05:12;;;;;;;;;;;17.00;68.30;;;;;;5015735;28;20393;-78
2021/11/06 14:07:43;;;;;;;;;;;16.90;69.10;;;;;;5014360;28;19912;-77
2021/11/06 14:10:08;;;;;;;;;;;16.40;70.30;;;;;;5014162;28;19928;-79
2021/11/06 14:12:41;;;;;;;;;;;16.40;70.70;;;;;;5014050;28;20299;-79
2021/11/06 14:15:09;;;;;;;;;;;16.10;71.30;;;;;;5015648;28;19905;-78
2021/11/06 14:17:48;;;;;;;;;;;16.10;71.60;;;;;;5015281;28;19905;-79
2021/11/06 14:20:16;;;;;;;;;;;16.10;71.80;;;;;;5015633;28;19960;-78
2021/11/06 14:22:43;;;;;;;;;;;16.30;71.80;;;;;;5015321;28;19913;-79
2021/11/06 14:25:22;;;;;;;;;;;16.20;72.40;;;;;;5015400;28;19912;-80